Time;durP1;ratioP1;P1;durP2;ratioP2;P2;SDS_P1;SDS_P2;PMS_P1;PMS_P2;Temp;Humidity;BMP_temperature;BMP_pressure;BME280_temperature;BME280_humidity;BME280_pressure;Samples;Min_cycle;Max_cycle;Signal;HPM_P1;HPM_P2
2023/12/19 00:01:25;;;;;;;7.38;7.03;;;;;;;;;;5995166;29;20538;-96
2023/12/19 00:04:28;;;;;;;7.30;6.85;;;;;;;;;;6000893;29;20531;-96
2023/12/19 00:07:30;;;;;;;5.95;5.75;;;;;;;;;;5994500;29;20097;-96
2023/12/19 00:10:33;;;;;;;6.32;6.03;;;;;;;;;;5995022;29;20534;-96
2023/12/19 00:13:36;;;;;;;7.50;6.90;;;;;;;;;;5990948;29;20054;-96
2023/12/19 00:16:38;;;;;;;6.82;6.45;;;;;;;;;;5993456;29;20517;-96
2023/12/19 00:19:40;;;;;;;8.02;7.35;;;;;;;;;;5998026;29;20046;-96
2023/12/19 00:22:42;;;;;;;6.60;6.30;;;;;;;;;;5991906;29;20121;-96
2023/12/19 00:25:46;;;;;;;6.03;5.82;;;;;;;;;;5996462;29;20509;-96
2023/12/19 00:28:48;;;;;;;7.13;6.75;;;;;;;;;;6001948;29;20038;-96
2023/12/19 00:31:51;;;;;;;6.75;6.40;;;;;;;;;;6002428;29;20046;-96
2023/12/19 00:34:53;;;;;;;7.10;6.47;;;;;;;;;;5999214;29;20042;-96
2023/12/19 00:37:56;;;;;;;5.63;5.38;;;;;;;;;;6009474;29;20057;-96
2023/12/19 00:40:58;;;;;;;5.78;5.47;;;;;;;;;;6012707;29;20050;-96
2023/12/19 00:44:03;;;;;;;6.10;5.78;;;;;;;;;;6011070;29;20061;-96
2023/12/19 00:47:06;;;;;;;5.78;5.43;;;;;;;;;;5993982;29;20049;-96
2023/12/19 00:50:08;;;;;;;6.57;6.28;;;;;;;;;;6018090;29;20054;-96
2023/12/19 00:53:10;;;;;;;7.75;7.18;;;;;;;;;;6008266;29;20492;-96
2023/12/19 00:56:13;;;;;;;6.18;5.63;;;;;;;;;;6003620;29;20060;-96
2023/12/19 00:59:18;;;;;;;5.90;5.70;;;;;;;;;;6004226;29;20058;-96
2023/12/19 01:02:20;;;;;;;6.53;6.22;;;;;;;;;;6023841;29;20316;-96
2023/12/19 01:05:28;;;;;;;6.05;5.75;;;;;;;;;;6005869;29;20412;-96
2023/12/19 01:08:30;;;;;;;6.65;6.35;;;;;;;;;;5999859;29;20054;-96
2023/12/19 01:11:33;;;;;;;5.82;5.63;;;;;;;;;;5991000;29;20061;-96
2023/12/19 01:14:35;;;;;;;7.47;6.97;;;;;;;;;;5994733;29;20058;-96
2023/12/19 01:17:37;;;;;;;6.55;6.30;;;;;;;;;;5994985;29;20477;-96
2023/12/19 01:20:39;;;;;;;7.43;6.82;;;;;;;;;;6003543;29;20034;-96
2023/12/19 01:23:42;;;;;;;8.82;8.40;;;;;;;;;;5999838;29;20042;-96
2023/12/19 01:26:46;;;;;;;6.65;6.32;;;;;;;;;;5997513;29;20057;-96
2023/12/19 01:29:48;;;;;;;5.57;5.35;;;;;;;;;;6005733;29;20053;-96
2023/12/19 01:32:50;;;;;;;6.75;6.40;;;;;;;;;;5985690;29;20050;-96
2023/12/19 01:35:53;;;;;;;6.05;5.85;;;;;;;;;;6002029;29;20101;-96
2023/12/19 01:38:55;;;;;;;6.63;6.43;;;;;;;;;;5985876;29;20042;-96
2023/12/19 01:41:57;;;;;;;5.88;5.60;;;;;;;;;;5995583;29;20458;-96
2023/12/19 01:45:05;;;;;;;7.30;6.90;;;;;;;;;;6002195;29;20117;-96
2023/12/19 01:48:07;;;;;;;6.95;6.53;;;;;;;;;;6001175;29;20416;-96
2023/12/19 01:51:11;;;;;;;5.85;5.65;;;;;;;;;;5996951;29;20052;-96
2023/12/19 01:54:13;;;;;;;7.05;6.47;;;;;;;;;;5999421;29;20042;-96
2023/12/19 01:57:15;;;;;;;7.10;6.72;;;;;;;;;;6006030;29;20050;-96
2023/12/19 02:00:17;;;;;;;5.38;5.18;;;;;;;;;;6003959;29;20591;-96
2023/12/19 02:03:20;;;;;;;5.35;5.15;;;;;;;;;;5995822;29;20045;-96
2023/12/19 02:06:23;;;;;;;5.22;4.93;;;;;;;;;;6001770;29;20456;-96
2023/12/19 02:09:27;;;;;;;5.40;5.20;;;;;;;;;;5998653;29;20391;-96
2023/12/19 02:12:30;;;;;;;5.55;5.32;;;;;;;;;;5992462;29;20082;-96
2023/12/19 02:15:32;;;;;;;6.72;6.43;;;;;;;;;;5995840;29;20042;-96
2023/12/19 02:18:34;;;;;;;4.93;4.80;;;;;;;;;;6000289;29;20106;-96
2023/12/19 02:21:36;;;;;;;5.53;5.32;;;;;;;;;;6003990;29;20050;-96
2023/12/19 02:24:42;;;;;;;5.93;5.72;;;;;;;;;;5992280;29;20054;-96
2023/12/19 02:27:43;;;;;;;6.43;6.10;;;;;;;;;;6006026;29;20489;-96
2023/12/19 02:30:45;;;;;;;4.93;4.75;;;;;;;;;;5998687;29;20057;-96
2023/12/19 02:33:47;;;;;;;8.13;6.07;;;;;;;;;;5992746;29;20500;-96
2023/12/19 02:36:50;;;;;;;6.43;6.03;;;;;;;;;;5997999;29;20103;-96
2023/12/19 02:39:52;;;;;;;6.53;6.15;;;;;;;;;;5998169;29;20420;-96
2023/12/19 02:42:55;;;;;;;5.53;5.32;;;;;;;;;;5996585;29;20042;-96
2023/12/19 02:45:57;;;;;;;6.57;6.28;;;;;;;;;;6003756;29;20054;-96
2023/12/19 02:49:00;;;;;;;5.63;5.32;;;;;;;;;;6003665;29;20117;-96
2023/12/19 02:52:02;;;;;;;5.15;4.95;;;;;;;;;;5996211;29;20038;-96
2023/12/19 02:55:06;;;;;;;5.47;5.28;;;;;;;;;;6002035;29;20107;-96
2023/12/19 02:58:08;;;;;;;6.70;6.40;;;;;;;;;;5988598;29;20050;-96
2023/12/19 03:01:12;;;;;;;5.50;4.97;;;;;;;;;;5995356;29;20520;-96
2023/12/19 03:04:15;;;;;;;5.13;4.93;;;;;;;;;;6004225;29;20045;-96
2023/12/19 03:07:20;;;;;;;4.25;4.15;;;;;;;;;;6040263;29;20124;-96
2023/12/19 03:10:27;;;;;;;5.05;4.60;;;;;;;;;;6024565;29;20046;-96
2023/12/19 03:13:31;;;;;;;5.78;5.25;;;;;;;;;;6017138;29;20373;-96
2023/12/19 03:16:33;;;;;;;5.72;5.53;;;;;;;;;;6011030;29;20509;-96
2023/12/19 03:19:36;;;;;;;5.47;5.28;;;;;;;;;;6014704;29;20050;-96
2023/12/19 03:22:39;;;;;;;4.88;4.68;;;;;;;;;;6006855;29;20041;-96
2023/12/19 03:25:41;;;;;;;5.68;5.22;;;;;;;;;;6024135;29;20037;-96
2023/12/19 03:28:44;;;;;;;5.80;5.60;;;;;;;;;;6015439;29;20076;-96
2023/12/19 03:31:46;;;;;;;5.93;5.63;;;;;;;;;;6016988;29;20050;-96
2023/12/19 03:34:48;;;;;;;4.90;4.80;;;;;;;;;;6017012;29;20065;-96
2023/12/19 03:37:51;;;;;;;5.28;4.97;;;;;;;;;;6011074;29;20061;-96
2023/12/19 03:40:54;;;;;;;5.72;5.53;;;;;;;;;;6014739;29;20054;-96
2023/12/19 03:43:58;;;;;;;5.72;5.25;;;;;;;;;;6018263;29;20419;-96
2023/12/19 03:47:06;;;;;;;4.13;3.95;;;;;;;;;;6020513;29;20413;-96
2023/12/19 03:50:09;;;;;;;5.72;5.43;;;;;;;;;;6018308;29;20055;-96
2023/12/19 03:53:11;;;;;;;4.95;4.75;;;;;;;;;;6025452;29;20051;-96
2023/12/19 03:56:16;;;;;;;4.47;4.38;;;;;;;;;;6017111;29;20078;-96
2023/12/19 03:59:19;;;;;;;5.03;4.78;;;;;;;;;;6019940;29;20054;-97
2023/12/19 04:02:31;;;;;;;4.55;4.35;;;;;;;;;;6025482;29;20108;-96
2023/12/19 04:05:33;;;;;;;4.57;4.47;;;;;;;;;;6041597;29;20121;-96
2023/12/19 04:08:38;;;;;;;4.63;4.45;;;;;;;;;;6027069;29;20102;-96
2023/12/19 04:11:46;;;;;;;4.90;4.78;;;;;;;;;;6014503;29;20054;-96
2023/12/19 04:14:49;;;;;;;5.13;4.78;;;;;;;;;;6017120;29;20087;-96
2023/12/19 04:17:58;;;;;;;5.32;5.03;;;;;;;;;;6020958;29;20045;-96
2023/12/19 04:21:00;;;;;;;5.32;5.13;;;;;;;;;;6015196;29;20051;-96
2023/12/19 04:24:06;;;;;;;6.38;6.05;;;;;;;;;;6005648;29;20055;-96
2023/12/19 04:27:08;;;;;;;5.60;5.20;;;;;;;;;;6021723;29;20085;-96
2023/12/19 04:30:15;;;;;;;4.70;4.50;;;;;;;;;;6033641;29;20046;-96
2023/12/19 04:33:21;;;;;;;5.28;5.07;;;;;;;;;;6013620;29;20052;-96
2023/12/19 04:36:30;;;;;;;6.05;5.75;;;;;;;;;;6027293;29;20093;-96
2023/12/19 04:39:36;;;;;;;6.00;5.80;;;;;;;;;;6024975;29;20045;-96
2023/12/19 04:42:43;;;;;;;5.18;4.88;;;;;;;;;;6008738;29;20505;-96
2023/12/19 04:45:56;;;;;;;4.45;4.35;;;;;;;;;;6024457;29;20106;-96
2023/12/19 04:49:04;;;;;;;4.97;4.78;;;;;;;;;;6021398;29;20050;-96
2023/12/19 04:52:06;;;;;;;5.15;5.05;;;;;;;;;;6026263;29;20046;-97
2023/12/19 04:55:14;;;;;;;5.07;4.88;;;;;;;;;;6017821;29;20053;-96
2023/12/19 04:58:22;;;;;;;5.60;5.38;;;;;;;;;;6009806;29;20049;-96
2023/12/19 05:01:27;;;;;;;4.80;4.70;;;;;;;;;;5990468;29;20584;-96
2023/12/19 05:04:32;;;;;;;6.32;6.03;;;;;;;;;;6004223;29;20174;-96
2023/12/19 05:07:37;;;;;;;5.20;4.90;;;;;;;;;;6015743;29;20061;-96
2023/12/19 05:10:44;;;;;;;6.55;4.22;;;;;;;;;;6017603;29;20066;-96
2023/12/19 05:13:49;;;;;;;5.15;4.95;;;;;;;;;;6021357;29;20050;-96
2023/12/19 05:16:57;;;;;;;4.22;4.13;;;;;;;;;;6024434;29;20140;-96
2023/12/19 05:20:21;;;;;;;4.78;4.63;;;;;;;;;;6019712;29;20409;-96
2023/12/19 05:23:37;;;;;;;5.45;5.25;;;;;;;;;;6023917;29;20465;-96
2023/12/19 05:26:39;;;;;;;5.68;5.47;;;;;;;;;;6026865;29;20043;-96
2023/12/19 05:29:45;;;;;;;4.78;4.63;;;;;;;;;;6024796;29;20054;-96
2023/12/19 05:32:47;;;;;;;5.47;5.18;;;;;;;;;;6019944;29;20041;-96
2023/12/19 05:35:52;;;;;;;4.43;4.22;;;;;;;;;;6019153;29;20054;-96
2023/12/19 05:38:57;;;;;;;4.35;4.25;;;;;;;;;;6018711;29;20042;-96
2023/12/19 05:42:02;;;;;;;4.88;4.68;;;;;;;;;;6016525;29;20050;-96
2023/12/19 05:45:04;;;;;;;4.65;4.55;;;;;;;;;;5991623;29;20096;-96
2023/12/19 05:48:17;;;;;;;4.97;4.85;;;;;;;;;;6020554;29;20549;-96
2023/12/19 05:51:24;;;;;;;4.75;4.65;;;;;;;;;;6016000;29;20095;-96
2023/12/19 05:54:36;;;;;;;4.57;4.47;;;;;;;;;;6022887;29;20121;-96
2023/12/19 05:57:39;;;;;;;4.10;4.00;;;;;;;;;;6025768;29;20053;-96
2023/12/19 06:00:48;;;;;;;4.63;4.40;;;;;;;;;;6031552;29;20046;-97
2023/12/19 06:04:02;;;;;;;4.20;4.10;;;;;;;;;;6025342;29;20046;-96
2023/12/19 06:07:05;;;;;;;4.93;4.82;;;;;;;;;;6020121;29;20054;-96
2023/12/19 06:10:19;;;;;;;4.82;4.72;;;;;;;;;;6029608;29;20042;-96
2023/12/19 06:13:31;;;;;;;4.88;4.68;;;;;;;;;;6026293;29;20049;-96
2023/12/19 06:16:35;;;;;;;4.13;4.03;;;;;;;;;;6022967;29;20058;-96
2023/12/19 06:19:40;;;;;;;4.53;4.43;;;;;;;;;;6030057;29;20042;-96
2023/12/19 06:22:45;;;;;;;4.78;4.57;;;;;;;;;;6023631;29;20054;-96
2023/12/19 06:25:47;;;;;;;4.82;4.47;;;;;;;;;;6027976;29;20061;-96
2023/12/19 06:28:52;;;;;;;5.47;5.28;;;;;;;;;;6030091;29;20050;-96
2023/12/19 06:31:57;;;;;;;4.38;4.28;;;;;;;;;;6019261;29;20054;-96
2023/12/19 06:35:07;;;;;;;5.57;5.32;;;;;;;;;;6016647;29;20106;-96
2023/12/19 06:38:31;;;;;;;5.68;5.15;;;;;;;;;;6027259;29;20046;-96
2023/12/19 06:41:37;;;;;;;4.53;4.43;;;;;;;;;;6020868;29;20058;-96
2023/12/19 06:44:43;;;;;;;5.22;5.03;;;;;;;;;;6023405;29;20038;-96
2023/12/19 06:47:45;;;;;;;4.32;4.22;;;;;;;;;;6014880;29;20545;-96
2023/12/19 06:50:47;;;;;;;5.80;5.05;;;;;;;;;;6028629;29;20156;-96
2023/12/19 06:53:59;;;;;;;5.10;4.82;;;;;;;;;;6040507;29;20118;-96
2023/12/19 06:57:13;;;;;;;4.55;4.43;;;;;;;;;;6028159;29;20070;-96
2023/12/19 07:00:21;;;;;;;4.95;4.75;;;;;;;;;;6019609;29;20046;-96
2023/12/19 07:03:25;;;;;;;5.75;5.45;;;;;;;;;;6011664;29;20050;-96
2023/12/19 07:06:31;;;;;;;5.03;4.82;;;;;;;;;;6017836;29;20121;-96
2023/12/19 07:09:38;;;;;;;4.88;4.75;;;;;;;;;;6031482;29;20046;-96
2023/12/19 07:12:46;;;;;;;;;;;;;;;;;;6034456;29;20133;-96
2023/12/19 07:15:48;;;;;;;6.25;6.05;;;;;;;;;;5992285;29;20339;-96
2023/12/19 07:18:50;;;;;;;4.88;4.68;;;;;;;;;;5991035;29;20046;-96
2023/12/19 07:21:52;;;;;;;6.43;6.13;;;;;;;;;;6004639;29;20137;-96
2023/12/19 07:24:55;;;;;;;6.50;6.22;;;;;;;;;;6001877;29;20054;-96
2023/12/19 07:27:57;;;;;;;6.90;6.50;;;;;;;;;;6006831;29;20133;-96
2023/12/19 07:30:58;;;;;;;5.70;5.50;;;;;;;;;;6015791;29;20050;-96
2023/12/19 07:34:03;;;;;;;5.75;5.22;;;;;;;;;;6017723;29;20147;-96
2023/12/19 07:37:05;;;;;;;5.70;5.50;;;;;;;;;;6002270;29;20057;-96
2023/12/19 07:40:10;;;;;;;5.68;5.35;;;;;;;;;;5998599;29;20191;-95
2023/12/19 07:43:12;;;;;;;5.47;5.28;;;;;;;;;;5995062;29;20053;-93
2023/12/19 07:46:14;;;;;;;5.43;5.13;;;;;;;;;;5992777;29;20053;-92
2023/12/19 07:49:16;;;;;;;5.35;5.15;;;;;;;;;;6001163;29;20066;-90
2023/12/19 07:52:18;;;;;;;5.90;5.70;;;;;;;;;;5994553;29;20054;-90
2023/12/19 07:55:20;;;;;;;4.72;4.63;;;;;;;;;;5995614;29;20450;-90
2023/12/19 07:58:22;;;;;;;4.88;4.78;;;;;;;;;;5999793;29;20444;-91
2023/12/19 08:01:23;;;;;;;5.72;5.53;;;;;;;;;;6002305;29;20469;-91
2023/12/19 08:04:26;;;;;;;4.97;4.88;;;;;;;;;;6003787;29;20340;-92
2023/12/19 08:07:28;;;;;;;6.38;6.18;;;;;;;;;;5992323;29;20057;-90
2023/12/19 08:10:32;;;;;;;5.95;5.65;;;;;;;;;;6008889;29;20057;-91
2023/12/19 08:13:35;;;;;;;5.78;5.57;;;;;;;;;;5989914;29;20733;-92
2023/12/19 08:16:37;;;;;;;5.05;4.93;;;;;;;;;;5992714;29;20054;-91
2023/12/19 08:19:38;;;;;;;5.60;5.40;;;;;;;;;;5996708;29;20106;-91
2023/12/19 08:22:41;;;;;;;5.45;5.25;;;;;;;;;;5988159;29;20242;-91
2023/12/19 08:25:43;;;;;;;6.00;5.80;;;;;;;;;;5984131;29;20062;-91
2023/12/19 08:28:45;;;;;;;5.20;5.10;;;;;;;;;;5995885;29;20041;-91
2023/12/19 08:31:47;;;;;;;5.70;5.50;;;;;;;;;;6000420;29;20049;-91
2023/12/19 08:34:49;;;;;;;5.18;5.05;;;;;;;;;;5993395;29;20072;-91
2023/12/19 08:37:51;;;;;;;6.20;5.93;;;;;;;;;;6004450;29;20487;-91
2023/12/19 08:40:53;;;;;;;6.78;6.47;;;;;;;;;;5992053;29;20462;-91
2023/12/19 08:43:54;;;;;;;5.53;5.32;;;;;;;;;;5999726;29;20106;-91
2023/12/19 08:46:56;;;;;;;5.13;4.95;;;;;;;;;;5989021;29;20046;-91
2023/12/19 08:49:59;;;;;;;6.45;6.25;;;;;;;;;;5996440;29;20061;-91
2023/12/19 08:53:01;;;;;;;5.25;5.10;;;;;;;;;;5992920;29;20142;-91
2023/12/19 08:56:03;;;;;;;5.25;5.15;;;;;;;;;;5999234;29;20054;-91
2023/12/19 08:59:05;;;;;;;5.45;5.25;;;;;;;;;;5994603;29;20743;-91
2023/12/19 09:02:07;;;;;;;5.40;5.20;;;;;;;;;;5985344;29;20081;-91
2023/12/19 09:05:10;;;;;;;6.03;5.82;;;;;;;;;;6002807;29;20049;-91
2023/12/19 09:08:12;;;;;;;5.85;5.65;;;;;;;;;;5996978;29;20058;-92
2023/12/19 09:11:14;;;;;;;5.65;5.45;;;;;;;;;;5997377;29;20402;-92
2023/12/19 09:14:17;;;;;;;5.47;5.28;;;;;;;;;;5996435;29;20088;-92
2023/12/19 09:17:19;;;;;;;6.53;6.32;;;;;;;;;;5991162;29;20048;-93
2023/12/19 09:20:23;;;;;;;5.85;5.65;;;;;;;;;;6003572;29;20054;-93
2023/12/19 09:23:25;;;;;;;5.38;5.20;;;;;;;;;;5998874;29;20417;-93
2023/12/19 09:26:27;;;;;;;5.22;5.10;;;;;;;;;;6013647;29;20858;-94
2023/12/19 09:29:30;;;;;;;5.22;5.03;;;;;;;;;;5992340;29;20042;-93
2023/12/19 09:32:32;;;;;;;6.13;5.93;;;;;;;;;;5992462;29;20153;-94
2023/12/19 09:35:35;;;;;;;6.00;5.80;;;;;;;;;;5996988;29;20038;-95
2023/12/19 09:38:37;;;;;;;5.55;5.35;;;;;;;;;;6010757;29;20567;-93
2023/12/19 09:41:39;;;;;;;5.60;5.40;;;;;;;;;;5990057;29;20050;-93
2023/12/19 09:44:41;;;;;;;5.25;5.15;;;;;;;;;;5999118;29;20052;-93
2023/12/19 09:47:48;;;;;;;5.13;4.90;;;;;;;;;;5992414;29;20053;-92
2023/12/19 09:50:51;;;;;;;4.82;4.72;;;;;;;;;;5994996;29;20045;-92
2023/12/19 09:53:54;;;;;;;4.88;4.75;;;;;;;;;;5977100;29;20461;-92
2023/12/19 09:56:58;;;;;;;5.93;5.72;;;;;;;;;;6007698;29;20053;-93
2023/12/19 10:00:06;;;;;;;5.20;5.03;;;;;;;;;;5992894;29;20077;-91
2023/12/19 10:03:08;;;;;;;6.20;6.00;;;;;;;;;;5991180;29;20053;-92
2023/12/19 10:06:10;;;;;;;5.40;5.20;;;;;;;;;;6008323;29;20083;-92
2023/12/19 10:09:15;;;;;;;5.35;5.15;;;;;;;;;;6003966;29;20669;-92
2023/12/19 10:12:17;;;;;;;5.20;5.10;;;;;;;;;;5994148;29;20051;-92
2023/12/19 10:15:19;;;;;;;5.30;5.10;;;;;;;;;;6002806;29;20077;-93
2023/12/19 10:18:23;;;;;;;5.70;5.50;;;;;;;;;;5994282;29;20270;-93
2023/12/19 10:21:36;;;;;;;5.68;5.47;;;;;;;;;;6015667;29;20042;-93
2023/12/19 10:24:38;;;;;;;5.25;5.05;;;;;;;;;;6018063;29;20212;-93
2023/12/19 10:27:40;;;;;;;5.97;5.78;;;;;;;;;;6011634;29;20049;-93
2023/12/19 10:30:43;;;;;;;4.93;4.82;;;;;;;;;;5993221;29;20057;-92
2023/12/19 10:33:55;;;;;;;5.70;5.50;;;;;;;;;;5997003;29;20045;-92
2023/12/19 10:37:08;;;;;;;5.70;5.50;;;;;;;;;;6005775;29;20039;-92
2023/12/19 10:40:11;;;;;;;5.65;5.45;;;;;;;;;;6017076;29;20101;-92
2023/12/19 10:43:13;;;;;;;5.63;5.43;;;;;;;;;;5997426;29;20477;-92
2023/12/19 10:46:18;;;;;;;5.57;5.38;;;;;;;;;;5992976;29;20646;-93
2023/12/19 10:49:19;;;;;;;5.15;5.00;;;;;;;;;;5995544;29;20072;-92
2023/12/19 10:52:25;;;;;;;4.75;4.65;;;;;;;;;;5993213;29;20087;-92
2023/12/19 10:55:33;;;;;;;5.13;5.03;;;;;;;;;;5988661;29;20046;-92
2023/12/19 10:58:39;;;;;;;5.20;5.07;;;;;;;;;;6007859;29;20053;-92
2023/12/19 11:01:42;;;;;;;5.60;5.40;;;;;;;;;;5989633;29;20480;-92
2023/12/19 11:04:50;;;;;;;5.35;5.15;;;;;;;;;;6009363;29;20046;-92
2023/12/19 11:07:57;;;;;;;6.10;5.90;;;;;;;;;;5996743;29;20058;-92
2023/12/19 11:11:24;;;;;;;5.53;5.32;;;;;;;;;;5999096;29;20111;-92
2023/12/19 11:14:26;;;;;;;4.90;4.80;;;;;;;;;;5990793;29;20047;-91
2023/12/19 11:17:40;;;;;;;4.78;4.68;;;;;;;;;;6000369;29;20046;-91
2023/12/19 11:20:52;;;;;;;5.15;5.03;;;;;;;;;;5989623;29;20046;-92
2023/12/19 11:24:07;;;;;;;4.85;4.75;;;;;;;;;;6002771;29;20042;-91
2023/12/19 11:27:16;;;;;;;5.97;5.78;;;;;;;;;;5996265;29;20058;-91
2023/12/19 11:30:37;;;;;;;5.97;5.78;;;;;;;;;;5998975;29;20046;-91
2023/12/19 11:33:39;;;;;;;5.57;5.38;;;;;;;;;;6010689;29;20065;-91
2023/12/19 11:36:42;;;;;;;6.10;5.90;;;;;;;;;;5992249;29;20046;-89
2023/12/19 11:39:44;;;;;;;6.65;6.35;;;;;;;;;;5997601;29;20359;-91
2023/12/19 11:42:46;;;;;;;5.70;5.50;;;;;;;;;;5993823;29;20538;-91
2023/12/19 11:45:48;;;;;;;5.57;5.38;;;;;;;;;;6006307;29;20049;-91
2023/12/19 11:48:50;;;;;;;5.47;5.32;;;;;;;;;;6012690;29;20046;-91
2023/12/19 11:51:54;;;;;;;5.97;5.78;;;;;;;;;;5996952;29;20093;-91
2023/12/19 11:54:57;;;;;;;6.35;6.05;;;;;;;;;;5987946;29;20055;-91
2023/12/19 11:58:13;;;;;;;6.45;6.25;;;;;;;;;;5995782;29;20042;-92
2023/12/19 12:01:15;;;;;;;5.13;5.00;;;;;;;;;;5996340;29;20089;-92
2023/12/19 12:04:19;;;;;;;5.57;5.38;;;;;;;;;;5997058;29;20042;-92
2023/12/19 12:07:21;;;;;;;6.53;6.32;;;;;;;;;;5998055;29;20413;-91
2023/12/19 12:10:26;;;;;;;6.85;6.65;;;;;;;;;;5998219;29;20042;-92
2023/12/19 12:13:29;;;;;;;6.28;6.07;;;;;;;;;;5989184;29;20053;-91
2023/12/19 12:16:37;;;;;;;6.25;6.05;;;;;;;;;;5997675;29;20513;-91
2023/12/19 12:19:40;;;;;;;5.60;5.40;;;;;;;;;;6014172;29;20136;-91
2023/12/19 12:22:42;;;;;;;6.22;6.03;;;;;;;;;;6003735;29;20073;-92
2023/12/19 12:25:52;;;;;;;6.32;6.13;;;;;;;;;;6017145;29;20046;-93
2023/12/19 12:28:54;;;;;;;6.18;5.97;;;;;;;;;;5989978;29;20350;-91
2023/12/19 12:31:56;;;;;;;6.15;5.95;;;;;;;;;;6002995;29;20069;-92
2023/12/19 12:34:58;;;;;;;5.78;5.57;;;;;;;;;;5999070;29;20058;-93
2023/12/19 12:38:01;;;;;;;6.38;6.18;;;;;;;;;;5993817;29;20054;-92
2023/12/19 12:41:04;;;;;;;6.53;6.32;;;;;;;;;;5997481;29;20050;-93
2023/12/19 12:44:10;;;;;;;6.22;6.03;;;;;;;;;;6015356;29;20137;-91
2023/12/19 12:47:23;;;;;;;5.72;5.53;;;;;;;;;;5999182;29;20534;-92
2023/12/19 12:50:25;;;;;;;5.70;5.50;;;;;;;;;;5994200;29;20132;-91
2023/12/19 12:53:26;;;;;;;5.18;5.03;;;;;;;;;;5999754;29;20114;-91
2023/12/19 12:56:30;;;;;;;5.60;5.40;;;;;;;;;;5993128;29;20049;-91
2023/12/19 12:59:34;;;;;;;5.80;5.40;;;;;;;;;;6003229;29;20412;-91
2023/12/19 13:02:38;;;;;;;6.15;5.95;;;;;;;;;;6000167;29;20497;-91
2023/12/19 13:05:40;;;;;;;6.45;6.25;;;;;;;;;;6009983;29;20171;-91
2023/12/19 13:08:42;;;;;;;5.75;5.55;;;;;;;;;;5988704;29;20070;-91
2023/12/19 13:11:44;;;;;;;6.43;6.22;;;;;;;;;;5985423;29;20080;-91
2023/12/19 13:14:46;;;;;;;6.00;5.80;;;;;;;;;;6001351;29;20053;-91
2023/12/19 13:17:48;;;;;;;5.72;5.53;;;;;;;;;;5983377;29;20042;-91
2023/12/19 13:20:51;;;;;;;5.57;5.38;;;;;;;;;;5999725;29;20128;-91
2023/12/19 13:23:54;;;;;;;6.05;5.85;;;;;;;;;;5991007;29;20041;-90
2023/12/19 13:26:56;;;;;;;5.68;5.47;;;;;;;;;;6002009;29;20064;-90
2023/12/19 13:30:00;;;;;;;6.60;6.40;;;;;;;;;;5990307;29;20078;-90
2023/12/19 13:33:03;;;;;;;6.35;6.15;;;;;;;;;;5998896;29;20050;-91
2023/12/19 13:36:06;;;;;;;6.13;5.93;;;;;;;;;;6011861;29;20046;-91
2023/12/19 13:39:11;;;;;;;5.00;4.90;;;;;;;;;;6003705;29;20050;-92
2023/12/19 13:42:14;;;;;;;5.53;5.32;;;;;;;;;;6003068;29;20454;-93
2023/12/19 13:45:16;;;;;;;6.65;6.35;;;;;;;;;;5999179;29;20046;-92
2023/12/19 13:48:18;;;;;;;5.80;5.60;;;;;;;;;;5994972;29;20060;-91
2023/12/19 13:51:20;;;;;;;5.35;5.18;;;;;;;;;;6001986;29;20054;-92
2023/12/19 13:54:24;;;;;;;5.10;5.00;;;;;;;;;;6006822;29;20128;-91
2023/12/19 13:57:27;;;;;;;5.43;5.32;;;;;;;;;;5993611;29;20057;-91
2023/12/19 14:00:31;;;;;;;5.65;5.45;;;;;;;;;;6019359;29;20559;-91
2023/12/19 14:03:34;;;;;;;5.20;5.00;;;;;;;;;;6010708;29;20049;-91
2023/12/19 14:06:39;;;;;;;4.75;4.65;;;;;;;;;;5999342;29;20042;-91
2023/12/19 14:09:41;;;;;;;5.05;4.90;;;;;;;;;;5996710;29;20053;-92
2023/12/19 14:12:49;;;;;;;6.15;5.95;;;;;;;;;;6014326;29;20462;-92
2023/12/19 14:15:53;;;;;;;5.78;5.55;;;;;;;;;;6017915;29;20056;-92
2023/12/19 14:18:56;;;;;;;5.68;5.47;;;;;;;;;;6007385;29;20512;-92
2023/12/19 14:22:00;;;;;;;5.30;5.15;;;;;;;;;;6011401;29;20093;-93
2023/12/19 14:25:02;;;;;;;5.55;5.35;;;;;;;;;;6010812;29;20065;-93
2023/12/19 14:28:06;;;;;;;6.15;5.95;;;;;;;;;;5992305;29;20046;-94
2023/12/19 14:31:12;;;;;;;5.53;5.32;;;;;;;;;;6016653;29;20050;-92
2023/12/19 14:34:15;;;;;;;5.97;5.78;;;;;;;;;;6005045;29;20049;-92
2023/12/19 14:37:18;;;;;;;5.43;5.28;;;;;;;;;;6001825;29;20038;-94
2023/12/19 14:40:20;;;;;;;5.88;5.68;;;;;;;;;;6017789;29;20057;-96
2023/12/19 14:43:26;;;;;;;5.82;5.63;;;;;;;;;;5992781;29;20046;-96
2023/12/19 14:46:49;;;;;;;6.15;5.95;;;;;;;;;;5997823;29;20478;-93
2023/12/19 14:49:52;;;;;;;6.85;6.65;;;;;;;;;;6000592;29;20050;-96
2023/12/19 14:52:55;;;;;;;6.32;6.13;;;;;;;;;;6000433;29;20045;-96
2023/12/19 14:55:58;;;;;;;6.10;5.90;;;;;;;;;;6008425;29;20073;-95
2023/12/19 14:58:59;;;;;;;6.50;6.30;;;;;;;;;;5995636;29;20046;-96
2023/12/19 15:02:02;;;;;;;7.00;6.80;;;;;;;;;;5996382;29;20060;-96
2023/12/19 15:05:05;;;;;;;6.15;5.78;;;;;;;;;;5994549;29;20053;-95
2023/12/19 15:08:07;;;;;;;5.22;5.13;;;;;;;;;;6011064;29;20053;-93
2023/12/19 15:11:09;;;;;;;6.95;6.75;;;;;;;;;;6016463;29;20046;-96
2023/12/19 15:14:11;;;;;;;6.93;6.72;;;;;;;;;;6003637;29;20512;-94
2023/12/19 15:17:14;;;;;;;6.45;6.25;;;;;;;;;;5988022;29;20053;-93
2023/12/19 15:20:16;;;;;;;6.25;6.05;;;;;;;;;;5996712;29;20041;-93
2023/12/19 15:23:18;;;;;;;6.70;6.50;;;;;;;;;;5993273;29;20456;-92
2023/12/19 15:26:20;;;;;;;5.20;5.10;;;;;;;;;;6000635;29;20053;-93
2023/12/19 15:29:24;;;;;;;5.43;5.25;;;;;;;;;;5992808;29;20049;-94
2023/12/19 15:32:27;;;;;;;5.72;5.53;;;;;;;;;;6001668;29;20051;-96
2023/12/19 15:35:30;;;;;;;6.18;5.97;;;;;;;;;;5997440;29;20065;-94
2023/12/19 15:38:41;;;;;;;6.40;6.20;;;;;;;;;;5990946;29;20069;-96
2023/12/19 15:41:43;;;;;;;5.75;5.55;;;;;;;;;;5997537;29;20054;-91
2023/12/19 15:44:49;;;;;;;6.53;6.32;;;;;;;;;;5999304;29;20049;-95
2023/12/19 15:48:00;;;;;;;6.53;6.32;;;;;;;;;;5996270;29;20433;-95
2023/12/19 15:51:03;;;;;;;5.97;5.78;;;;;;;;;;6001912;29;20461;-94
2023/12/19 15:54:05;;;;;;;5.35;5.15;;;;;;;;;;5992801;29;20050;-93
2023/12/19 15:57:07;;;;;;;5.57;5.38;;;;;;;;;;6006373;29;20057;-91
2023/12/19 16:00:10;;;;;;;4.90;4.78;;;;;;;;;;5994472;29;20035;-94
2023/12/19 16:03:13;;;;;;;6.13;5.93;;;;;;;;;;5997529;29;20049;-94
2023/12/19 16:06:16;;;;;;;5.80;5.60;;;;;;;;;;6002877;29;20144;-93
2023/12/19 16:09:18;;;;;;;6.50;6.30;;;;;;;;;;6008399;29;20433;-93
2023/12/19 16:12:20;;;;;;;5.57;5.38;;;;;;;;;;5998394;29;20054;-94
2023/12/19 16:15:22;;;;;;;5.10;5.00;;;;;;;;;;6005630;29;20058;-91
2023/12/19 16:18:24;;;;;;;5.65;5.45;;;;;;;;;;5995893;29;20134;-91
2023/12/19 16:21:47;;;;;;;5.32;5.13;;;;;;;;;;5994369;29;20505;-92
2023/12/19 16:25:05;;;;;;;5.47;5.28;;;;;;;;;;6009806;29;20069;-94
2023/12/19 16:28:23;;;;;;;5.95;5.75;;;;;;;;;;5993308;29;20050;-95
2023/12/19 16:31:27;;;;;;;4.90;4.80;;;;;;;;;;5997878;29;20076;-93
2023/12/19 16:38:34;;;;;;;5.85;5.65;;;;;;;;;;5880537;30;20515;-94
2023/12/19 16:42:08;;;;;;;8.00;7.70;;;;;;;;;;5866960;30;20562;-95
2023/12/19 16:49:30;;;;;;;9.88;9.48;;;;;;;;;;5870062;30;20098;-93
2023/12/19 16:52:40;;;;;;;6.20;6.00;;;;;;;;;;5886037;30;20044;-96
2023/12/19 16:55:45;;;;;;;7.65;7.35;;;;;;;;;;5903198;29;20521;-92
2023/12/19 16:58:47;;;;;;;7.15;6.95;;;;;;;;;;5949789;29;20054;-93
2023/12/19 17:02:03;;;;;;;6.35;6.15;;;;;;;;;;5935525;29;20489;-94
2023/12/19 17:05:32;;;;;;;5.30;5.10;;;;;;;;;;5927934;29;20050;-93
2023/12/19 17:08:34;;;;;;;5.40;5.22;;;;;;;;;;5952692;29;20103;-92
2023/12/19 17:11:36;;;;;;;5.00;4.90;;;;;;;;;;5952150;29;20054;-91
2023/12/19 17:14:41;;;;;;;5.00;4.90;;;;;;;;;;5958689;29;20513;-90
2023/12/19 17:17:42;;;;;;;18.48;17.60;;;;;;;;;;5977412;29;20125;-92
2023/12/19 17:21:13;;;;;;;8.43;8.13;;;;;;;;;;5978198;29;20042;-94
2023/12/19 17:24:15;;;;;;;9.63;9.23;;;;;;;;;;5942513;29;20058;-89
2023/12/19 17:27:17;;;;;;;9.60;9.20;;;;;;;;;;5944705;29;20674;-92
2023/12/19 17:30:19;;;;;;;5.93;5.72;;;;;;;;;;5928889;29;20053;-92
2023/12/19 17:33:21;;;;;;;6.00;5.80;;;;;;;;;;5937984;29;20094;-93
2023/12/19 17:36:29;;;;;;;6.03;5.82;;;;;;;;;;5947076;29;20055;-95
2023/12/19 17:39:32;;;;;;;6.20;6.00;;;;;;;;;;5947436;29;20051;-92
2023/12/19 17:42:34;;;;;;;5.20;5.07;;;;;;;;;;5949489;29;20691;-89
2023/12/19 17:45:36;;;;;;;5.53;5.32;;;;;;;;;;5943310;29;20099;-91
2023/12/19 17:48:39;;;;;;;11.15;10.70;;;;;;;;;;5943764;29;20191;-92
2023/12/19 17:51:41;;;;;;;5.13;5.00;;;;;;;;;;5931449;29;20095;-90
2023/12/19 17:54:43;;;;;;;6.60;6.30;;;;;;;;;;5942019;29;20113;-92
2023/12/19 17:57:45;;;;;;;5.78;5.57;;;;;;;;;;5946068;29;20051;-92
2023/12/19 18:00:47;;;;;;;5.75;5.55;;;;;;;;;;5966651;29;20090;-92
2023/12/19 18:03:49;;;;;;;5.60;5.40;;;;;;;;;;5989332;29;20072;-92
2023/12/19 18:06:51;;;;;;;5.47;5.28;;;;;;;;;;5998999;29;20053;-92
2023/12/19 18:09:53;;;;;;;5.55;5.30;;;;;;;;;;5994539;29;20600;-91
2023/12/19 18:12:54;;;;;;;4.43;4.32;;;;;;;;;;6008621;29;20046;-91
2023/12/19 18:15:56;;;;;;;5.40;5.20;;;;;;;;;;5993439;29;20061;-90
2023/12/19 18:18:58;;;;;;;5.70;5.50;;;;;;;;;;6011583;29;20061;-89
2023/12/19 18:22:00;;;;;;;5.38;5.18;;;;;;;;;;5994438;29;20211;-92
2023/12/19 18:25:02;;;;;;;4.93;4.82;;;;;;;;;;5999794;29;20084;-91
2023/12/19 18:28:06;;;;;;;5.03;4.90;;;;;;;;;;6010234;29;20049;-90
2023/12/19 18:31:08;;;;;;;5.63;5.43;;;;;;;;;;6015299;29;20123;-91
2023/12/19 18:34:10;;;;;;;5.85;5.55;;;;;;;;;;5996266;29;20053;-93